Time;durP1;ratioP1;P1;durP2;ratioP2;P2;SDS_P1;SDS_P2;PMS_P1;PMS_P2;Temp;Humidity;BMP_temperature;BMP_pressure;BME280_temperature;BME280_humidity;BME280_pressure;Samples;Min_cycle;Max_cycle;Signal;HPM_P1;HPM_P2
2022/09/26 00:01:46;;;;;;;5.65;4.18;;;12.50;80.50;;;;;;5041568;28;20029;-65
2022/09/26 00:04:21;;;;;;;6.20;4.10;;;12.50;80.50;;;;;;5037749;28;20430;-64
2022/09/26 00:06:48;;;;;;;5.57;3.42;;;12.50;80.80;;;;;;5036747;28;20029;-64
2022/09/26 00:09:15;;;;;;;5.45;3.90;;;12.50;80.70;;;;;;5043612;28;20025;-64
2022/09/26 00:11:43;;;;;;;5.28;3.60;;;12.50;80.70;;;;;;5035057;28;20025;-64
2022/09/26 00:14:14;;;;;;;5.07;4.13;;;12.50;80.70;;;;;;5040757;28;20490;-65
2022/09/26 00:16:40;;;;;;;4.65;4.10;;;12.60;80.80;;;;;;5040017;28;20032;-64
2022/09/26 00:19:06;;;;;;;5.95;4.30;;;12.50;80.90;;;;;;5041411;28;20025;-64
2022/09/26 00:21:33;;;;;;;5.05;3.60;;;12.50;81.00;;;;;;5042509;28;21798;-64
2022/09/26 00:24:00;;;;;;;5.88;4.25;;;12.60;81.10;;;;;;5036960;28;20097;-64
2022/09/26 00:26:28;;;;;;;4.00;3.60;;;12.60;81.10;;;;;;5037232;28;20020;-64
2022/09/26 00:28:54;;;;;;;3.80;3.28;;;12.60;81.20;;;;;;5039830;28;20029;-64
2022/09/26 00:31:30;;;;;;;5.22;3.60;;;12.60;81.20;;;;;;5036089;28;20432;-64
2022/09/26 00:33:56;;;;;;;4.38;3.50;;;12.60;81.30;;;;;;5037064;28;20037;-64
2022/09/26 00:36:22;;;;;;;4.95;3.67;;;12.60;81.20;;;;;;5042162;28;20049;-65
2022/09/26 00:38:48;;;;;;;6.22;3.65;;;12.60;81.00;;;;;;5043406;28;20065;-64
2022/09/26 00:41:15;;;;;;;5.55;3.08;;;12.60;81.00;;;;;;5038343;28;20116;-65
2022/09/26 00:43:44;;;;;;;4.75;3.50;;;12.70;81.00;;;;;;5040331;28;20133;-64
2022/09/26 00:46:31;;;;;;;4.90;2.80;;;12.70;81.00;;;;;;5035337;28;20064;-64
2022/09/26 00:49:24;;;;;;;4.10;3.40;;;12.70;81.00;;;;;;5036326;28;20057;-65
2022/09/26 00:51:54;;;;;;;4.13;2.88;;;12.70;80.90;;;;;;5037658;28;20055;-64
2022/09/26 00:54:20;;;;;;;4.68;3.30;;;12.80;80.80;;;;;;5035792;28;20033;-64
2022/09/26 00:56:51;;;;;;;3.92;2.67;;;12.80;80.70;;;;;;5035750;28;20104;-65
2022/09/26 00:59:21;;;;;;;3.08;2.30;;;12.80;80.60;;;;;;5040057;28;20033;-66
2022/09/26 01:01:47;;;;;;;3.38;2.40;;;12.90;80.50;;;;;;5035944;28;20407;-66
2022/09/26 01:04:13;;;;;;;3.65;2.72;;;12.90;80.40;;;;;;5037030;28;20027;-65
2022/09/26 01:06:39;;;;;;;3.00;2.60;;;12.90;80.30;;;;;;5036391;28;20017;-64
2022/09/26 01:09:08;;;;;;;5.13;2.70;;;12.90;80.30;;;;;;5040796;28;20585;-64
2022/09/26 01:11:40;;;;;;;4.10;3.10;;;12.90;80.30;;;;;;5037232;28;20048;-66
2022/09/26 01:14:08;;;;;;;4.82;3.00;;;12.90;80.30;;;;;;5044517;28;20053;-65
2022/09/26 01:16:35;;;;;;;4.38;2.80;;;12.90;80.30;;;;;;5036834;28;20783;-65
2022/09/26 01:19:18;;;;;;;2.60;2.40;;;13.00;80.30;;;;;;5035172;28;20091;-66
2022/09/26 01:22:05;;;;;;;3.15;2.42;;;13.00;80.30;;;;;;5041279;28;20060;-65
2022/09/26 01:24:43;;;;;;;2.60;2.28;;;13.00;80.30;;;;;;5035703;28;20028;-65
2022/09/26 01:27:24;;;;;;;4.07;2.72;;;13.00;80.30;;;;;;5034497;28;20381;-65
2022/09/26 01:30:02;;;;;;;4.63;3.15;;;13.00;80.30;;;;;;5033756;28;20055;-65
2022/09/26 01:33:01;;;;;;;4.68;3.03;;;12.90;80.40;;;;;;5039899;28;20035;-66
2022/09/26 01:35:30;;;;;;;3.50;3.08;;;12.90;80.50;;;;;;5035033;28;20029;-65
2022/09/26 01:38:18;;;;;;;4.35;3.22;;;12.90;80.70;;;;;;5035384;28;20034;-66
2022/09/26 01:41:06;;;;;;;5.68;4.50;;;12.90;80.90;;;;;;5037626;28;20108;-65
2022/09/26 01:43:42;;;;;;;6.22;3.38;;;12.80;81.30;;;;;;5037380;28;20021;-65
2022/09/26 01:46:35;;;;;;;4.90;3.10;;;12.80;81.40;;;;;;5039085;28;20024;-65
2022/09/26 01:49:15;;;;;;;4.80;3.10;;;12.80;81.60;;;;;;5038936;28;20017;-65
2022/09/26 01:51:55;;;;;;;5.32;3.58;;;12.80;81.60;;;;;;5037772;28;20037;-65
2022/09/26 01:54:36;;;;;;;5.43;4.00;;;12.80;81.60;;;;;;5037293;28;20040;-66
2022/09/26 01:57:05;;;;;;;5.10;3.50;;;12.70;81.80;;;;;;5040841;28;20025;-65
2022/09/26 01:59:36;;;;;;;3.58;3.28;;;12.70;81.90;;;;;;5038890;28;20387;-65
2022/09/26 02:02:09;;;;;;;5.45;4.55;;;12.70;82.00;;;;;;5046010;28;20056;-66
2022/09/26 02:04:38;;;;;;;9.88;7.80;;;12.70;82.00;;;;;;5044441;28;20104;-66
2022/09/26 02:07:11;;;;;;;20.55;17.95;;;12.70;82.00;;;;;;5038955;28;20091;-66
2022/09/26 02:09:47;;;;;;;30.25;25.05;;;12.70;82.00;;;;;;5042569;28;20472;-65
2022/09/26 02:12:20;;;;;;;20.13;17.95;;;12.60;82.00;;;;;;5040795;28;20045;-65
2022/09/26 02:14:47;;;;;;;19.85;17.67;;;12.60;82.00;;;;;;5034323;28;20033;-65
2022/09/26 02:17:17;;;;;;;18.67;16.73;;;12.70;82.10;;;;;;5040551;28;20112;-65
2022/09/26 02:20:05;;;;;;;14.88;12.82;;;12.60;82.10;;;;;;5037936;28;20028;-65
2022/09/26 02:22:33;;;;;;;15.70;12.65;;;12.60;82.20;;;;;;5042824;28;20033;-66
2022/09/26 02:25:00;;;;;;;11.80;9.73;;;12.60;82.30;;;;;;5040700;28;20021;-65
2022/09/26 02:27:26;;;;;;;12.07;8.93;;;12.60;82.30;;;;;;5038441;28;20029;-66
2022/09/26 02:29:52;;;;;;;6.95;5.80;;;12.60;82.20;;;;;;5037246;28;20017;-66
2022/09/26 02:32:23;;;;;;;8.80;6.40;;;12.60;82.20;;;;;;5041365;28;20046;-66
2022/09/26 02:34:49;;;;;;;5.85;4.82;;;12.60;82.00;;;;;;5043880;28;20536;-66
2022/09/26 02:37:16;;;;;;;7.60;5.00;;;12.60;82.00;;;;;;5044375;28;20041;-66
2022/09/26 02:39:44;;;;;;;8.02;4.78;;;12.60;81.90;;;;;;5038632;28;20081;-66
2022/09/26 02:42:39;;;;;;;5.57;3.95;;;12.60;81.80;;;;;;5042375;28;20084;-66
2022/09/26 02:45:20;;;;;;;3.60;3.10;;;12.60;81.70;;;;;;5040687;28;20070;-66
2022/09/26 02:48:04;;;;;;;3.30;2.53;;;12.60;81.50;;;;;;5035988;28;20053;-65
2022/09/26 02:50:42;;;;;;;3.83;2.90;;;12.60;81.40;;;;;;5038776;28;20025;-65
2022/09/26 02:53:44;;;;;;;7.10;3.25;;;12.70;81.20;;;;;;5039426;28;20021;-65
2022/09/26 02:56:35;;;;;;;3.63;2.65;;;12.70;81.00;;;;;;5038605;28;20033;-65
2022/09/26 02:59:33;;;;;;;5.03;3.30;;;12.70;81.40;;;;;;5037748;28;20032;-65
2022/09/26 03:02:04;;;;;;;5.38;3.40;;;12.70;80.60;;;;;;5040737;28;20024;-65
2022/09/26 03:04:40;;;;;;;5.38;3.13;;;12.70;80.40;;;;;;5040235;28;20030;-65
2022/09/26 03:07:10;;;;;;;4.38;2.80;;;12.70;80.30;;;;;;5039349;28;20032;-64
2022/09/26 03:09:37;;;;;;;4.95;3.05;;;12.70;80.10;;;;;;5038953;28;20013;-65
2022/09/26 03:12:05;;;;;;;6.32;3.00;;;12.70;80.00;;;;;;5042382;28;20071;-66
2022/09/26 03:14:33;;;;;;;3.28;2.38;;;12.70;80.00;;;;;;5038033;28;20025;-66
2022/09/26 03:17:00;;;;;;;4.78;3.08;;;12.70;79.90;;;;;;5038106;28;20028;-65
2022/09/26 03:19:33;;;;;;;5.32;3.20;;;12.70;80.00;;;;;;5040184;28;20754;-66
2022/09/26 03:22:00;;;;;;;5.20;3.10;;;12.70;79.90;;;;;;5042585;28;20057;-66
2022/09/26 03:24:26;;;;;;;3.75;2.50;;;12.70;80.00;;;;;;5036011;28;20503;-66
2022/09/26 03:26:54;;;;;;;4.40;2.60;;;12.70;80.00;;;;;;5042051;28;20606;-66
2022/09/26 03:29:19;;;;;;;6.90;3.30;;;12.70;80.10;;;;;;5037722;28;20057;-65
2022/09/26 03:31:45;;;;;;;4.70;2.83;;;12.60;80.10;;;;;;5041948;28;20052;-65
2022/09/26 03:34:11;;;;;;;4.03;2.65;;;12.60;80.10;;;;;;5042757;28;20560;-66
2022/09/26 03:36:38;;;;;;;5.03;2.80;;;12.60;80.20;;;;;;5037906;28;20108;-66
2022/09/26 03:39:04;;;;;;;5.13;2.90;;;12.60;80.20;;;;;;5033498;28;20025;-65
2022/09/26 03:41:30;;;;;;;5.85;3.38;;;12.60;80.20;;;;;;5038016;28;20435;-65
2022/09/26 03:43:56;;;;;;;4.82;3.50;;;12.60;80.30;;;;;;5038892;28;20025;-64
2022/09/26 03:46:23;;;;;;;5.10;2.83;;;12.60;80.40;;;;;;5041895;28;20039;-65
2022/09/26 03:48:49;;;;;;;5.75;3.13;;;12.50;80.30;;;;;;5038138;28;20010;-65
2022/09/26 03:51:15;;;;;;;4.78;3.50;;;12.60;80.40;;;;;;5038216;28;20035;-65
2022/09/26 03:53:42;;;;;;;6.25;3.53;;;12.50;80.40;;;;;;5040102;28;20029;-65
2022/09/26 03:56:11;;;;;;;3.42;2.90;;;12.50;80.60;;;;;;5039772;28;20504;-66
2022/09/26 03:58:38;;;;;;;4.82;3.00;;;12.50;80.70;;;;;;5040073;28;20080;-66
2022/09/26 04:01:08;;;;;;;4.72;2.70;;;12.50;80.70;;;;;;5037853;28;20083;-67
2022/09/26 04:03:39;;;;;;;3.50;3.05;;;12.50;80.80;;;;;;5040454;28;20100;-66
2022/09/26 04:06:07;;;;;;;6.53;3.30;;;12.40;80.80;;;;;;5035253;28;20370;-67
2022/09/26 04:08:33;;;;;;;4.45;2.75;;;12.40;80.90;;;;;;5042810;28;20017;-66
2022/09/26 04:11:01;;;;;;;3.70;2.55;;;12.40;81.00;;;;;;5035022;28;20033;-66
2022/09/26 04:13:26;;;;;;;5.72;3.10;;;12.40;80.90;;;;;;5040112;28;20029;-66
2022/09/26 04:15:59;;;;;;;6.80;3.90;;;12.40;81.00;;;;;;5037470;28;20051;-66
2022/09/26 04:18:25;;;;;;;6.00;3.17;;;12.30;81.10;;;;;;5039901;28;20037;-66
2022/09/26 04:20:59;;;;;;;6.07;3.30;;;12.20;81.10;;;;;;5034031;28;20049;-66
2022/09/26 04:23:29;;;;;;;6.60;3.05;;;12.20;81.30;;;;;;5035161;28;20022;-66
2022/09/26 04:25:55;;;;;;;4.97;3.08;;;12.20;81.30;;;;;;5034288;28;20026;-67
2022/09/26 04:28:22;;;;;;;6.93;3.67;;;12.20;81.20;;;;;;5038686;28;20020;-65
2022/09/26 04:30:48;;;;;;;4.68;2.97;;;12.10;81.20;;;;;;5038250;28;20021;-66
2022/09/26 04:33:14;;;;;;;4.30;2.80;;;12.10;81.30;;;;;;5037398;28;20495;-66
2022/09/26 04:35:40;;;;;;;4.18;2.63;;;12.10;81.80;;;;;;5041989;28;21701;-66
2022/09/26 04:38:05;;;;;;;5.53;3.05;;;12.20;81.20;;;;;;5040494;28;20024;-66
2022/09/26 04:40:31;;;;;;;5.03;2.58;;;12.20;81.10;;;;;;5037528;28;20027;-66
2022/09/26 04:42:57;;;;;;;6.05;2.92;;;12.10;81.00;;;;;;5038333;28;20048;-66
2022/09/26 04:45:23;;;;;;;4.82;2.90;;;12.20;81.10;;;;;;5038734;28;20059;-66
2022/09/26 04:47:49;;;;;;;5.63;2.65;;;12.20;81.00;;;;;;5039234;28;20507;-65
2022/09/26 04:50:14;;;;;;;4.78;2.65;;;12.20;80.80;;;;;;5039993;28;20072;-65
2022/09/26 04:52:40;;;;;;;4.75;2.40;;;12.20;80.70;;;;;;5039784;28;20056;-65
2022/09/26 04:55:06;;;;;;;5.57;2.40;;;12.10;80.70;;;;;;5038625;28;20111;-65
2022/09/26 04:57:31;;;;;;;4.97;2.90;;;12.20;80.50;;;;;;5033859;28;20038;-65
2022/09/26 04:59:57;;;;;;;3.95;2.50;;;12.20;80.40;;;;;;5037443;28;20029;-65
2022/09/26 05:02:22;;;;;;;3.53;2.20;;;12.20;80.30;;;;;;5036557;28;20021;-65
2022/09/26 05:04:50;;;;;;;4.35;2.20;;;12.10;80.10;;;;;;5038952;28;20020;-65
2022/09/26 05:07:17;;;;;;;5.60;2.90;;;12.20;80.20;;;;;;5047808;28;20020;-65
2022/09/26 05:09:43;;;;;;;3.90;2.50;;;12.20;80.00;;;;;;5034250;28;20026;-66
2022/09/26 05:12:09;;;;;;;5.78;2.35;;;12.20;79.90;;;;;;5037175;28;20618;-65
2022/09/26 05:14:35;;;;;;;7.60;3.00;;;12.20;79.70;;;;;;5037149;28;20033;-66
2022/09/26 05:17:01;;;;;;;5.07;2.42;;;12.10;79.30;;;;;;5049377;28;20418;-66
2022/09/26 05:19:27;;;;;;;3.25;2.30;;;12.20;79.40;;;;;;5039971;28;20033;-65
2022/09/26 05:21:53;;;;;;;4.30;2.55;;;12.20;79.40;;;;;;5037798;28;20517;-65
2022/09/26 05:27:05;;;;;;;4.53;2.42;;;12.10;79.50;;;;;;5043768;28;20115;-66
2022/09/26 05:29:30;;;;;;;4.60;2.60;;;12.10;79.60;;;;;;5043812;28;20038;-66
2022/09/26 05:31:56;;;;;;;4.40;2.30;;;12.10;79.80;;;;;;5035617;28;20037;-66
2022/09/26 05:34:23;;;;;;;4.63;2.42;;;12.10;79.90;;;;;;5045250;28;20040;-66
2022/09/26 05:36:50;;;;;;;5.22;3.25;;;12.10;80.00;;;;;;5045496;28;20025;-66
2022/09/26 05:42:01;;;;;;;4.35;2.28;;;12.00;80.30;;;;;;5046058;28;20040;-67
2022/09/26 05:44:27;;;;;;;5.00;2.95;;;12.00;80.30;;;;;;5044243;28;20403;-66
2022/09/26 05:46:52;;;;;;;3.85;2.30;;;12.00;80.30;;;;;;5044936;28;20091;-67
2022/09/26 05:49:18;;;;;;;6.15;3.05;;;12.00;80.40;;;;;;5046260;28;20025;-67
2022/09/26 05:51:44;;;;;;;5.97;2.65;;;12.00;80.50;;;;;;5042157;28;20021;-67
2022/09/26 05:54:09;;;;;;;3.28;2.13;;;11.90;80.50;;;;;;5034156;28;20438;-66
2022/09/26 05:56:36;;;;;;;4.95;2.50;;;12.00;80.50;;;;;;5044048;28;20101;-67
2022/09/26 05:59:03;;;;;;;3.38;2.40;;;12.00;80.50;;;;;;5053328;28;20036;-66
2022/09/26 06:01:28;;;;;;;5.70;2.80;;;11.90;80.50;;;;;;5049636;28;20116;-67
2022/09/26 06:03:54;;;;;;;5.57;2.78;;;12.00;80.50;;;;;;5053319;28;20384;-66
2022/09/26 06:06:20;;;;;;;5.95;3.00;;;12.00;80.50;;;;;;5053110;28;20488;-66
2022/09/26 06:08:47;;;;;;;7.60;3.97;;;12.00;80.50;;;;;;5041425;28;20101;-66
2022/09/26 06:11:16;;;;;;;8.88;3.13;;;12.00;80.50;;;;;;5034384;28;20653;-67
2022/09/26 06:13:44;;;;;;;4.07;2.40;;;12.00;80.60;;;;;;5032992;28;20032;-66
2022/09/26 06:16:12;;;;;;;5.30;3.13;;;12.00;80.70;;;;;;5033347;28;20075;-67
2022/09/26 06:18:38;;;;;;;3.80;2.90;;;12.00;80.80;;;;;;5036237;28;20414;-66
2022/09/26 06:21:05;;;;;;;5.18;2.90;;;12.00;80.90;;;;;;5044585;28;20030;-66
2022/09/26 06:23:33;;;;;;;6.22;2.50;;;12.00;80.90;;;;;;5033192;28;20427;-67
2022/09/26 06:25:59;;;;;;;4.50;2.88;;;12.00;81.00;;;;;;5033085;28;20029;-67
2022/09/26 06:28:25;;;;;;;3.83;1.95;;;12.00;80.90;;;;;;5032987;28;20024;-67
2022/09/26 06:30:54;;;;;;;2.42;2.00;;;12.00;80.90;;;;;;5032909;28;20025;-67
2022/09/26 06:33:21;;;;;;;4.22;2.67;;;12.10;81.00;;;;;;5048954;28;20022;-67
2022/09/26 06:35:46;;;;;;;4.65;2.20;;;12.10;80.90;;;;;;5044388;28;20444;-67
2022/09/26 06:38:12;;;;;;;4.22;2.28;;;12.00;80.90;;;;;;5045863;28;20060;-67
2022/09/26 06:40:38;;;;;;;5.80;3.30;;;12.10;80.90;;;;;;5047166;28;20100;-67
2022/09/26 06:43:04;;;;;;;5.00;2.70;;;12.10;80.80;;;;;;5040690;28;20022;-67
2022/09/26 06:45:29;;;;;;;6.57;3.22;;;12.10;80.90;;;;;;5039050;28;20032;-67
2022/09/26 06:47:58;;;;;;;4.35;2.30;;;12.10;80.80;;;;;;5038229;28;20028;-66
2022/09/26 06:50:24;;;;;;;4.38;2.20;;;12.20;80.80;;;;;;5043927;28;20029;-66
2022/09/26 06:52:50;;;;;;;5.65;3.08;;;12.20;80.60;;;;;;5049000;28;20037;-66
2022/09/26 06:55:16;;;;;;;5.35;2.65;;;12.20;80.40;;;;;;5043179;28;20041;-66
2022/09/26 06:57:42;;;;;;;3.95;2.13;;;12.20;80.50;;;;;;5040534;28;20484;-67
2022/09/26 07:00:14;;;;;;;4.18;2.53;;;12.20;80.50;;;;;;5038195;28;20025;-66
2022/09/26 07:02:53;;;;;;;4.90;2.47;;;12.30;80.50;;;;;;5038192;28;20039;-66
2022/09/26 07:05:20;;;;;;;5.38;3.10;;;12.30;80.40;;;;;;5039294;28;20017;-67
2022/09/26 07:07:47;;;;;;;5.90;2.90;;;12.30;80.30;;;;;;5043963;28;20091;-66
2022/09/26 07:10:14;;;;;;;5.63;3.50;;;12.20;80.30;;;;;;5039568;28;20020;-66
2022/09/26 07:12:42;;;;;;;6.38;3.45;;;12.30;80.30;;;;;;5040595;28;20459;-67
2022/09/26 07:15:12;;;;;;;6.32;2.80;;;12.30;80.40;;;;;;5042620;28;20024;-66
2022/09/26 07:17:42;;;;;;;6.60;3.47;;;12.30;80.50;;;;;;5036015;28;20029;-67
2022/09/26 07:20:12;;;;;;;6.55;3.38;;;12.20;80.20;;;;;;5038513;28;20740;-67
2022/09/26 07:22:38;;;;;;;4.22;2.78;;;12.20;80.30;;;;;;5038393;28;20033;-67
2022/09/26 07:25:04;;;;;;;4.72;2.65;;;12.30;80.40;;;;;;5044778;28;20028;-67
2022/09/26 07:27:30;;;;;;;6.22;3.20;;;12.30;80.50;;;;;;5042553;28;20113;-67
2022/09/26 07:29:57;;;;;;;8.15;3.35;;;12.20;80.30;;;;;;5044635;28;20865;-67
2022/09/26 07:32:23;;;;;;;5.63;2.90;;;12.20;80.40;;;;;;5041606;28;20029;-67
2022/09/26 07:34:48;;;;;;;6.15;2.97;;;12.20;80.40;;;;;;5044187;28;20045;-67
2022/09/26 07:37:15;;;;;;;6.65;3.03;;;12.30;80.40;;;;;;5036717;28;20033;-67
2022/09/26 07:39:41;;;;;;;7.00;3.25;;;12.30;80.20;;;;;;5040082;28;20029;-67
2022/09/26 07:42:07;;;;;;;5.72;3.00;;;12.30;80.20;;;;;;5040046;28;20025;-67
2022/09/26 07:44:33;;;;;;;3.13;2.00;;;12.30;80.10;;;;;;5040105;28;20017;-67
2022/09/26 07:52:28;;;;;;;5.68;2.80;;;12.50;80.00;;;;;;5046800;28;20055;-67
2022/09/26 07:54:53;;;;;;;6.68;3.05;;;12.50;80.00;;;;;;5044902;28;20033;-67
2022/09/26 07:57:19;;;;;;;6.47;3.03;;;12.50;80.00;;;;;;5044591;28;20033;-67
2022/09/26 07:59:45;;;;;;;4.93;3.10;;;12.50;80.00;;;;;;5044301;28;20124;-67
2022/09/26 08:02:24;;;;;;;5.07;2.58;;;12.50;79.90;;;;;;5049460;28;20056;-67
2022/09/26 08:04:53;;;;;;;7.95;2.85;;;12.50;80.00;;;;;;5047732;28;20610;-67
2022/09/26 08:07:19;;;;;;;4.80;2.50;;;12.60;80.00;;;;;;5045863;28;20566;-67
2022/09/26 08:09:45;;;;;;;5.72;2.40;;;12.60;79.90;;;;;;5046380;28;20033;-67
2022/09/26 08:12:11;;;;;;;5.72;2.75;;;12.60;79.90;;;;;;5050354;28;20040;-67
2022/09/26 08:14:38;;;;;;;5.93;2.92;;;12.60;79.80;;;;;;5055462;28;20108;-67
2022/09/26 08:17:04;;;;;;;5.97;2.85;;;12.60;79.80;;;;;;5041636;28;20031;-67
2022/09/26 08:19:29;;;;;;;7.10;3.05;;;12.60;79.80;;;;;;5053154;28;20033;-66
2022/09/26 08:21:55;;;;;;;3.47;2.17;;;12.60;79.80;;;;;;5058309;28;20025;-67
2022/09/26 08:24:20;;;;;;;3.45;2.35;;;12.70;79.70;;;;;;5048956;28;20087;-67
2022/09/26 08:26:46;;;;;;;3.95;2.15;;;12.70;79.60;;;;;;5047534;28;20033;-67
2022/09/26 08:29:12;;;;;;;6.78;3.00;;;12.70;79.60;;;;;;5047454;28;20058;-67
2022/09/26 08:31:38;;;;;;;4.43;2.40;;;12.80;79.60;;;;;;5057886;28;20059;-67
2022/09/26 08:34:07;;;;;;;4.78;2.90;;;12.80;79.70;;;;;;5055504;28;20056;-66
2022/09/26 08:36:35;;;;;;;4.97;2.40;;;12.80;79.70;;;;;;5057182;28;20031;-65
2022/09/26 08:39:02;;;;;;;5.78;2.72;;;12.80;79.70;;;;;;5043893;28;20039;-66
2022/09/26 08:41:46;;;;;;;6.60;2.85;;;12.80;79.80;;;;;;5046387;28;20386;-66
2022/09/26 08:44:28;;;;;;;6.25;2.63;;;12.80;79.70;;;;;;5045248;28;20388;-66
2022/09/26 08:47:00;;;;;;;8.10;3.40;;;12.90;79.80;;;;;;5047571;28;20028;-66
2022/09/26 08:49:43;;;;;;;4.85;2.40;;;12.90;79.60;;;;;;5054835;28;20022;-66
2022/09/26 08:52:36;;;;;;;3.63;2.40;;;12.90;79.40;;;;;;5063196;28;20059;-66
2022/09/26 08:55:19;;;;;;;5.07;2.63;;;12.90;79.40;;;;;;5034996;28;20419;-66
2022/09/26 08:57:50;;;;;;;6.15;2.90;;;12.90;79.30;;;;;;5065917;28;20048;-66
2022/09/26 09:00:19;;;;;;;5.72;2.80;;;13.00;79.40;;;;;;5042744;28;20037;-66
2022/09/26 09:03:00;;;;;;;7.18;2.80;;;13.00;79.40;;;;;;5044795;28;20066;-66
2022/09/26 09:05:33;;;;;;;6.15;2.88;;;13.00;79.40;;;;;;5056765;28;20028;-66
2022/09/26 09:08:01;;;;;;;5.80;2.28;;;13.00;79.40;;;;;;5054469;28;20027;-66
2022/09/26 09:11:00;;;;;;;4.55;2.60;;;13.00;79.50;;;;;;5047629;28;20400;-66
2022/09/26 09:14:00;;;;;;;5.05;2.42;;;13.00;79.70;;;;;;5034801;28;20594;-66
2022/09/26 09:16:50;;;;;;;5.45;2.65;;;13.00;80.10;;;;;;5051633;28;20029;-66
2022/09/26 09:19:34;;;;;;;4.22;2.33;;;12.90;80.40;;;;;;5042044;28;20160;-66
2022/09/26 09:22:40;;;;;;;4.32;2.33;;;12.90;80.90;;;;;;5054306;28;20024;-66
2022/09/26 09:25:28;;;;;;;5.15;2.67;;;12.90;81.00;;;;;;5037568;28;20055;-67
2022/09/26 09:28:32;;;;;;;5.13;2.80;;;12.90;81.40;;;;;;5054526;28;20021;-67
2022/09/26 09:31:05;;;;;;;5.30;3.05;;;12.90;81.90;;;;;;5046948;28;20021;-67
2022/09/26 09:33:47;;;;;;;5.97;2.97;;;12.90;82.30;;;;;;5057276;28;20099;-67
2022/09/26 09:36:19;;;;;;;8.90;3.28;;;12.90;82.50;;;;;;5047787;28;20021;-67
2022/09/26 09:38:47;;;;;;;4.90;2.25;;;12.80;82.90;;;;;;5050525;28;20118;-67
2022/09/26 09:41:16;;;;;;;6.97;3.50;;;12.90;82.90;;;;;;5050179;28;20040;-67
2022/09/26 09:44:02;;;;;;;3.88;2.30;;;12.90;82.90;;;;;;5061503;28;20095;-66
2022/09/26 09:46:31;;;;;;;7.50;3.08;;;12.90;83.20;;;;;;5048850;28;20166;-67
2022/09/26 09:49:08;;;;;;;4.22;2.50;;;12.90;83.30;;;;;;5062707;28;20028;-67
2022/09/26 09:51:50;;;;;;;5.38;2.95;;;12.90;83.40;;;;;;5048636;28;20056;-67
2022/09/26 09:54:34;;;;;;;6.18;3.20;;;13.00;83.50;;;;;;5056728;28;20060;-66
2022/09/26 09:57:18;;;;;;;4.28;2.63;;;13.10;83.50;;;;;;5039025;28;20029;-67
2022/09/26 10:00:00;;;;;;;5.20;2.80;;;13.10;83.70;;;;;;5044032;28;20033;-67
2022/09/26 10:02:59;;;;;;;5.78;3.17;;;13.00;83.80;;;;;;5042208;28;20446;-66
2022/09/26 10:05:34;;;;;;;6.35;2.75;;;13.00;84.10;;;;;;5038215;28;20523;-67
2022/09/26 10:08:00;;;;;;;4.38;2.72;;;13.00;84.30;;;;;;5046701;28;20032;-66
2022/09/26 10:11:00;;;;;;;6.18;3.33;;;13.00;84.50;;;;;;5033230;28;20392;-67
2022/09/26 10:13:26;;;;;;;7.18;2.80;;;12.90;84.50;;;;;;5029578;28;20084;-67
2022/09/26 10:15:59;;;;;;;6.57;3.20;;;12.90;84.60;;;;;;5045534;28;20605;-67
2022/09/26 10:18:26;;;;;;;3.92;2.35;;;13.00;84.60;;;;;;5046162;28;20037;-67
2022/09/26 10:20:57;;;;;;;5.65;3.10;;;13.00;84.70;;;;;;5040560;28;20029;-67
2022/09/26 10:23:38;;;;;;;6.13;2.90;;;12.90;84.90;;;;;;5044258;28;20029;-67
2022/09/26 10:26:07;;;;;;;7.70;3.30;;;12.90;85.00;;;;;;5045606;28;20025;-66
2022/09/26 10:28:43;;;;;;;6.30;4.18;;;12.90;85.20;;;;;;5046293;28;20389;-67
2022/09/26 10:31:10;;;;;;;6.85;3.60;;;12.90;85.30;;;;;;5045274;28;20487;-67
2022/09/26 10:33:42;;;;;;;6.03;3.38;;;12.90;85.30;;;;;;5032652;28;20219;-66
2022/09/26 10:36:35;;;;;;;6.15;3.30;;;12.90;85.40;;;;;;5040924;28;20024;-67
2022/09/26 10:42:01;;;;;;;9.27;7.00;;;12.90;85.80;;;;;;5048362;28;20039;-66
2022/09/26 10:44:29;;;;;;;16.90;13.15;;;12.90;86.10;;;;;;5052003;28;20036;-67
2022/09/26 10:47:07;;;;;;;15.38;12.13;;;12.90;86.20;;;;;;5042326;28;20029;-66
2022/09/26 10:49:53;;;;;;;11.98;8.90;;;12.90;86.10;;;;;;5032515;28;20060;-67
2022/09/26 10:52:23;;;;;;;16.02;13.32;;;12.90;86.20;;;;;;5038450;28;20029;-67
2022/09/26 10:55:03;;;;;;;25.05;22.40;;;12.90;86.40;;;;;;5049780;28;20032;-66
2022/09/26 10:57:36;;;;;;;14.15;11.43;;;12.90;86.90;;;;;;5039340;28;20021;-66
2022/09/26 11:00:05;;;;;;;12.45;10.55;;;12.80;87.20;;;;;;5045452;28;20016;-66
2022/09/26 11:02:31;;;;;;;8.07;4.93;;;12.90;87.30;;;;;;5041005;28;20484;-66
2022/09/26 11:07:51;;;;;;;7.20;6.22;;;12.80;87.70;;;;;;5056133;28;20167;-66
2022/09/26 11:10:24;;;;;;;12.68;10.40;;;12.80;87.90;;;;;;5063342;28;20029;-66
2022/09/26 11:13:18;;;;;;;9.23;7.97;;;12.80;88.00;;;;;;5036317;28;20020;-66
2022/09/26 11:16:00;;;;;;;5.57;4.15;;;12.80;88.20;;;;;;5041298;28;20113;-66
2022/09/26 11:19:05;;;;;;;9.55;8.07;;;12.80;88.30;;;;;;5051098;28;20024;-66
2022/09/26 11:21:50;;;;;;;7.78;6.32;;;12.90;88.40;;;;;;5043511;28;20021;-66
2022/09/26 11:24:25;;;;;;;8.30;5.90;;;12.90;88.40;;;;;;5039060;28;20475;-66
2022/09/26 11:27:20;;;;;;;8.10;6.38;;;13.00;88.40;;;;;;5049764;28;20017;-66
2022/09/26 11:30:07;;;;;;;82.65;60.92;;;13.00;88.40;;;;;;5038614;28;20079;-66
2022/09/26 11:32:41;;;;;;;64.32;47.50;;;12.90;88.60;;;;;;5037222;28;20021;-66
2022/09/26 11:35:28;;;;;;;14.18;10.75;;;13.00;88.60;;;;;;5031599;28;20044;-66
2022/09/26 11:38:25;;;;;;;6.55;5.22;;;13.00;88.50;;;;;;5040416;28;20033;-66
2022/09/26 11:40:59;;;;;;;6.63;4.68;;;13.00;88.50;;;;;;5037700;28;20030;-66
2022/09/26 11:43:48;;;;;;;8.10;4.15;;;13.00;88.60;;;;;;5044388;28;20494;-66
2022/09/26 11:46:23;;;;;;;5.68;3.50;;;12.90;88.60;;;;;;5044049;28;20072;-66
2022/09/26 11:49:12;;;;;;;5.25;4.07;;;12.90;88.70;;;;;;5032569;28;20029;-67
2022/09/26 11:51:59;;;;;;;5.85;4.18;;;13.00;88.90;;;;;;5031281;28;20026;-67
2022/09/26 11:54:44;;;;;;;4.18;3.78;;;13.00;88.90;;;;;;5039705;28;20037;-67
2022/09/26 11:57:50;;;;;;;5.63;4.15;;;13.00;89.10;;;;;;5047676;28;20036;-66
2022/09/26 12:00:26;;;;;;;7.18;6.43;;;12.90;89.20;;;;;;5047763;28;20033;-67
2022/09/26 12:03:10;;;;;;;6.15;4.10;;;12.90;89.30;;;;;;5046193;28;20475;-67
2022/09/26 12:05:38;;;;;;;5.78;4.30;;;13.00;89.30;;;;;;5047594;28;20021;-66
2022/09/26 12:08:39;;;;;;;10.38;6.05;;;12.90;89.20;;;;;;5048802;28;20033;-67
2022/09/26 12:11:32;;;;;;;6.80;4.63;;;12.90;89.50;;;;;;5035088;28;20017;-66
2022/09/26 12:14:12;;;;;;;6.20;4.45;;;12.90;89.90;;;;;;5058467;28;20032;-66
2022/09/26 12:17:02;;;;;;;6.72;4.43;;;12.80;89.90;;;;;;5035376;28;20029;-67
2022/09/26 12:19:37;;;;;;;9.13;8.23;;;12.90;89.90;;;;;;5048773;28;20593;-66
2022/09/26 12:22:28;;;;;;;4.80;3.95;;;13.00;89.90;;;;;;5050596;28;20017;-66
2022/09/26 12:25:24;;;;;;;5.82;3.88;;;13.00;89.90;;;;;;5055997;28;20047;-66
2022/09/26 12:28:24;;;;;;;5.85;3.05;;;13.00;89.70;;;;;;5050920;28;20610;-66
2022/09/26 12:31:19;;;;;;;3.90;3.15;;;13.10;89.70;;;;;;5045338;28;20029;-66
2022/09/26 12:34:01;;;;;;;11.13;10.13;;;13.00;89.70;;;;;;5040359;28;20028;-66
2022/09/26 12:36:26;;;;;;;5.03;3.40;;;13.00;89.80;;;;;;5040951;28;20112;-66
2022/09/26 12:39:24;;;;;;;3.85;2.72;;;13.00;89.70;;;;;;5046326;28;20075;-67
2022/09/26 12:42:00;;;;;;;7.53;6.72;;;13.10;89.80;;;;;;5049900;28;20107;-66
2022/09/26 12:44:56;;;;;;;4.30;3.72;;;13.00;89.90;;;;;;5043158;28;20025;-68
2022/09/26 12:47:31;;;;;;;4.30;3.80;;;13.10;90.00;;;;;;5064352;28;20028;-66
2022/09/26 12:50:15;;;;;;;6.75;6.05;;;13.10;89.80;;;;;;5051536;28;20024;-66
2022/09/26 12:52:53;;;;;;;6.63;5.43;;;13.00;89.80;;;;;;5045512;28;20033;-66
2022/09/26 12:55:49;;;;;;;6.28;4.50;;;13.10;90.00;;;;;;5059439;28;20046;-66
2022/09/26 12:58:30;;;;;;;3.88;3.35;;;13.10;89.90;;;;;;5050210;28;20029;-67
2022/09/26 13:01:22;;;;;;;6.38;4.07;;;13.10;90.00;;;;;;5043305;28;20083;-67
2022/09/26 13:04:21;;;;;;;7.95;6.70;;;13.10;90.00;;;;;;5041112;28;20029;-67
2022/09/26 13:07:04;;;;;;;9.60;6.22;;;13.10;90.00;;;;;;5034807;28;20073;-66
2022/09/26 13:09:56;;;;;;;9.65;7.78;;;13.10;89.90;;;;;;5040791;28;20129;-67
2022/09/26 13:13:07;;;;;;;6.88;5.38;;;13.20;90.00;;;;;;5030419;28;20056;-66
2022/09/26 13:15:54;;;;;;;18.08;14.60;;;13.20;89.90;;;;;;5028441;28;20385;-67
2022/09/26 13:18:28;;;;;;;12.55;10.07;;;13.20;90.00;;;;;;5036556;28;20036;-67
2022/09/26 13:21:01;;;;;;;9.40;7.13;;;13.20;90.00;;;;;;5030001;28;20025;-67
2022/09/26 13:23:33;;;;;;;20.10;13.95;;;13.20;90.00;;;;;;5038523;28;20034;-67
2022/09/26 13:26:04;;;;;;;11.45;7.60;;;13.20;90.00;;;;;;5037248;28;20433;-67
2022/09/26 13:28:53;;;;;;;11.13;7.43;;;13.20;90.00;;;;;;5039698;28;20013;-66
2022/09/26 13:31:24;;;;;;;12.52;7.82;;;13.20;90.10;;;;;;5039261;28;20021;-67
2022/09/26 13:34:15;;;;;;;9.23;6.97;;;13.20;90.10;;;;;;5039582;28;20381;-67
2022/09/26 13:36:42;;;;;;;4.05;3.15;;;13.10;90.40;;;;;;5032132;28;20666;-66